Time;durP1;ratioP1;P1;durP2;ratioP2;P2;SDS_P1;SDS_P2;PMS_P1;PMS_P2;Temp;Humidity;BMP_temperature;BMP_pressure;BME280_temperature;BME280_humidity;BME280_pressure;Samples;Min_cycle;Max_cycle;Signal;HPM_P1;HPM_P2
2021/04/29 00:00:30;;;;;;;14.13;11.00;;;282.30;1945.60;;;;;;5069931;28;20024;-70
2021/04/29 00:02:56;;;;;;;14.38;11.02;;;282.30;1971.20;;;;;;5070173;28;20028;-70
2021/04/29 00:05:27;;;;;;;14.23;10.70;;;282.30;1971.20;;;;;;5071840;28;20425;-71
2021/04/29 00:07:52;;;;;;;13.55;10.93;;;282.30;1945.60;;;;;;5073410;28;20526;-71
2021/04/29 00:10:22;;;;;;;12.88;10.32;;;282.30;1971.20;;;;;;5073481;28;20132;-70
2021/04/29 00:12:48;;;;;;;12.15;10.38;;;282.20;1971.20;;;;;;5073446;28;20049;-71
2021/04/29 00:15:16;;;;;;;12.65;9.88;;;282.20;1945.60;;;;;;5073125;28;20024;-70
2021/04/29 00:17:42;;;;;;;14.07;10.60;;;282.20;1945.60;;;;;;5073294;28;20045;-71
2021/04/29 00:20:12;;;;;;;10.85;9.15;;;282.20;1945.60;;;;;;5073765;28;20103;-71
2021/04/29 00:22:38;;;;;;;12.80;10.05;;;282.20;1945.60;;;;;;5073643;28;20029;-71
2021/04/29 00:25:05;;;;;;;11.82;9.95;;;282.20;1945.60;;;;;;5073264;28;20086;-70
2021/04/29 00:27:32;;;;;;;12.75;9.68;;;282.10;1945.60;;;;;;5073129;28;20045;-71
2021/04/29 00:30:01;;;;;;;12.30;9.80;;;282.20;1945.60;;;;;;5073069;28;20024;-70
2021/04/29 00:32:26;;;;;;;11.98;10.00;;;282.20;1945.60;;;;;;5073259;28;20466;-71
2021/04/29 00:34:52;;;;;;;11.82;9.98;;;282.10;1945.60;;;;;;5072992;28;20012;-71
2021/04/29 00:37:18;;;;;;;11.98;9.50;;;282.10;1945.60;;;;;;5073209;28;20047;-71
2021/04/29 00:39:43;;;;;;;14.68;9.70;;;282.10;1945.60;;;;;;5072950;28;20032;-70
2021/04/29 00:42:09;;;;;;;13.35;10.77;;;282.10;1945.60;;;;;;5073120;28;20485;-71
2021/04/29 00:44:35;;;;;;;10.73;9.20;;;282.00;1971.20;;;;;;5072771;28;20021;-71
2021/04/29 00:47:01;;;;;;;11.88;9.18;;;282.00;1971.20;;;;;;5072843;28;20301;-71
2021/04/29 00:49:27;;;;;;;10.05;8.57;;;282.00;1971.20;;;;;;5073015;28;20390;-71
2021/04/29 00:51:53;;;;;;;10.10;8.82;;;282.00;1945.60;;;;;;5072626;28;20033;-71
2021/04/29 00:54:18;;;;;;;10.27;9.13;;;281.90;1971.20;;;;;;5072759;28;20390;-70
2021/04/29 00:56:44;;;;;;;10.88;8.88;;;281.90;1971.20;;;;;;5072480;28;20059;-70
2021/04/29 00:59:10;;;;;;;9.15;8.05;;;281.90;1971.20;;;;;;5071362;28;20017;-71
2021/04/29 01:01:38;;;;;;;10.48;8.60;;;281.90;1971.20;;;;;;5072524;28;20538;-71
2021/04/29 01:04:14;;;;;;;9.13;7.93;;;281.80;1971.20;;;;;;5072335;28;20024;-71
2021/04/29 01:06:45;;;;;;;9.68;8.52;;;281.80;1971.20;;;;;;5071215;28;20482;-71
2021/04/29 01:09:24;;;;;;;9.45;7.97;;;281.80;1971.20;;;;;;5072414;28;20070;-71
2021/04/29 01:11:59;;;;;;;8.65;7.38;;;281.80;1971.20;;;;;;5072363;28;20044;-70
2021/04/29 01:14:26;;;;;;;9.15;8.18;;;281.90;1971.20;;;;;;5072392;28;20027;-71
2021/04/29 01:16:52;;;;;;;9.70;7.57;;;281.80;1971.20;;;;;;5070822;28;20056;-71
2021/04/29 01:19:20;;;;;;;8.02;7.22;;;281.90;1971.20;;;;;;5072529;28;20043;-71
2021/04/29 01:21:46;;;;;;;8.23;6.88;;;281.90;1971.20;;;;;;5072229;28;20028;-71
2021/04/29 01:24:19;;;;;;;8.38;7.38;;;281.90;1945.60;;;;;;5072149;28;20030;-71
2021/04/29 01:27:01;;;;;;;8.02;6.90;;;281.90;1971.20;;;;;;5072053;28;20032;-70
2021/04/29 01:29:31;;;;;;;11.27;6.32;;;281.70;1971.20;;;;;;5072201;28;20071;-70
2021/04/29 01:31:58;;;;;;;7.97;7.18;;;281.70;1971.20;;;;;;5072016;28;20033;-70
2021/04/29 01:34:27;;;;;;;6.90;6.20;;;281.80;1971.20;;;;;;5071800;28;20024;-71
2021/04/29 01:36:55;;;;;;;7.68;6.53;;;281.70;1971.20;;;;;;5071766;28;20486;-70
2021/04/29 01:39:21;;;;;;;7.57;6.78;;;281.70;1971.20;;;;;;5071941;28;20558;-70
2021/04/29 01:41:53;;;;;;;8.13;6.95;;;281.80;1971.20;;;;;;5071928;28;20103;-70
2021/04/29 01:44:21;;;;;;;7.53;6.72;;;281.80;1971.20;;;;;;5071786;28;20036;-70
2021/04/29 01:46:48;;;;;;;7.25;6.55;;;281.80;1971.20;;;;;;5071670;28;20055;-71
2021/04/29 01:49:14;;;;;;;8.63;7.72;;;281.80;1971.20;;;;;;5071488;28;20033;-71
2021/04/29 01:51:41;;;;;;;8.98;6.78;;;281.80;1971.20;;;;;;5071546;28;20482;-69
2021/04/29 01:54:09;;;;;;;8.15;7.03;;;281.80;1971.20;;;;;;5071568;28;20146;-70
2021/04/29 01:56:36;;;;;;;7.72;6.93;;;281.80;1971.20;;;;;;5071218;28;20490;-70
2021/04/29 01:59:04;;;;;;;7.80;6.95;;;281.80;1971.20;;;;;;5071271;28;20031;-71
2021/04/29 02:01:30;;;;;;;7.80;6.95;;;281.80;1971.20;;;;;;5071547;28;20441;-71
2021/04/29 02:03:56;;;;;;;7.95;7.15;;;281.60;1996.80;;;;;;5070152;28;20016;-70
2021/04/29 02:06:22;;;;;;;7.63;6.85;;;281.70;1996.80;;;;;;5071107;28;20120;-71
2021/04/29 02:08:48;;;;;;;9.50;6.47;;;281.70;1996.80;;;;;;5071296;28;20478;-70
2021/04/29 02:11:14;;;;;;;7.68;6.93;;;281.70;1996.80;;;;;;5070918;28;20040;-70
2021/04/29 02:13:43;;;;;;;8.93;7.13;;;281.70;1971.20;;;;;;5071504;28;20025;-70
2021/04/29 02:16:14;;;;;;;7.22;6.53;;;256.90;1971.20;;;;;;5071027;28;20123;-71
2021/04/29 02:18:46;;;;;;;7.75;6.90;;;281.60;1996.80;;;;;;5071133;28;20083;-71
2021/04/29 02:21:18;;;;;;;8.13;6.85;;;281.60;1996.80;;;;;;5070952;28;20021;-71
2021/04/29 02:23:48;;;;;;;7.80;6.72;;;281.60;1996.80;;;;;;5071302;28;20016;-70
2021/04/29 02:26:17;;;;;;;7.75;6.95;;;281.70;1996.80;;;;;;5070874;28;20478;-70
2021/04/29 02:28:44;;;;;;;6.95;6.32;;;256.90;1971.20;;;;;;5070633;28;20036;-71
2021/04/29 02:31:10;;;;;;;8.30;6.90;;;281.60;1996.80;;;;;;5070936;28;20071;-69
2021/04/29 02:33:37;;;;;;;7.68;6.97;;;281.70;1996.80;;;;;;5070984;28;20028;-71
2021/04/29 02:36:05;;;;;;;7.90;7.10;;;281.70;1996.80;;;;;;5070746;28;20493;-71
2021/04/29 02:38:31;;;;;;;8.30;7.45;;;256.80;1996.80;;;;;;5070856;28;20028;-70
2021/04/29 02:40:57;;;;;;;8.55;6.72;;;256.90;1996.80;;;;;;5070769;28;20498;-71
2021/04/29 02:43:24;;;;;;;8.05;6.80;;;256.90;1996.80;;;;;;5071024;28;20024;-71
2021/04/29 02:45:50;;;;;;;7.80;7.00;;;256.90;1996.80;;;;;;5070741;28;20470;-70
2021/04/29 02:48:17;;;;;;;8.05;6.90;;;281.60;1996.80;;;;;;5070976;28;20033;-71
2021/04/29 02:50:44;;;;;;;8.15;7.32;;;281.60;1996.80;;;;;;5070459;28;20078;-73
2021/04/29 02:53:17;;;;;;;8.30;7.38;;;281.60;1996.80;;;;;;5070761;28;20103;-70
2021/04/29 02:55:44;;;;;;;8.02;7.18;;;281.60;1996.80;;;;;;5070424;28;20470;-71
2021/04/29 02:58:13;;;;;;;9.32;7.60;;;281.60;1996.80;;;;;;5070707;28;20070;-70
2021/04/29 03:00:40;;;;;;;8.07;7.28;;;281.60;1996.80;;;;;;5070642;28;20021;-71
2021/04/29 03:03:08;;;;;;;7.95;7.15;;;256.80;1971.20;;;;;;5070610;28;20020;-70
2021/04/29 03:05:34;;;;;;;8.00;7.20;;;281.60;1996.80;;;;;;5070328;28;20111;-71
2021/04/29 03:08:00;;;;;;;8.55;7.15;;;256.90;1996.80;;;;;;5070571;28;20024;-70
2021/04/29 03:10:26;;;;;;;8.20;7.30;;;281.60;1996.80;;;;;;5070364;28;20032;-71
2021/04/29 03:12:52;;;;;;;9.48;7.43;;;281.60;1996.80;;;;;;5070407;28;20078;-71
2021/04/29 03:15:18;;;;;;;8.63;7.30;;;281.60;1996.80;;;;;;5070478;28;20028;-71
2021/04/29 03:17:44;;;;;;;9.05;7.70;;;281.60;1996.80;;;;;;5070055;28;20067;-71
2021/04/29 03:20:11;;;;;;;8.65;7.68;;;281.60;1996.80;;;;;;5070719;28;20029;-70
2021/04/29 03:22:36;;;;;;;8.68;7.50;;;256.90;1971.20;;;;;;5070575;28;20025;-71
2021/04/29 03:25:04;;;;;;;8.38;7.57;;;256.90;1971.20;;;;;;5070370;28;20033;-70
2021/04/29 03:27:29;;;;;;;8.57;7.65;;;256.90;1971.20;;;;;;5070408;28;20540;-70
2021/04/29 03:29:55;;;;;;;9.68;7.65;;;256.80;1971.20;;;;;;5070112;28;20025;-70
2021/04/29 03:32:21;;;;;;;9.18;7.72;;;256.90;1971.20;;;;;;5070219;28;20063;-71
2021/04/29 03:34:47;;;;;;;11.15;7.53;;;256.90;1971.20;;;;;;5070416;28;20021;-70
2021/04/29 03:37:13;;;;;;;8.98;7.80;;;256.90;1971.20;;;;;;5070340;28;20029;-71
2021/04/29 03:39:39;;;;;;;8.50;7.60;;;256.80;1996.80;;;;;;5071286;28;20017;-71
2021/04/29 03:42:06;;;;;;;8.60;7.65;;;256.70;1996.80;;;;;;5074059;28;20427;-71
2021/04/29 03:44:33;;;;;;;8.98;8.07;;;256.70;1996.80;;;;;;5074018;28;20025;-71
2021/04/29 03:46:59;;;;;;;9.73;8.27;;;256.80;1996.80;;;;;;5073952;28;20033;-70
2021/04/29 03:49:25;;;;;;;8.80;7.57;;;256.70;1996.80;;;;;;5073786;28;20032;-71
2021/04/29 03:51:50;;;;;;;8.82;7.88;;;256.70;1996.80;;;;;;5073928;28;20490;-71
2021/04/29 03:54:16;;;;;;;8.27;7.45;;;256.80;1996.80;;;;;;5073966;28;20043;-70
2021/04/29 03:56:42;;;;;;;8.40;7.50;;;256.80;1996.80;;;;;;5073622;28;20024;-71
2021/04/29 03:59:07;;;;;;;9.23;8.20;;;256.80;1996.80;;;;;;5073807;28;20348;-71
2021/04/29 04:01:33;;;;;;;7.93;7.13;;;256.70;1996.80;;;;;;5072234;28;20032;-71
2021/04/29 04:03:59;;;;;;;10.95;7.70;;;256.70;2022.40;;;;;;5072054;28;20049;-71
2021/04/29 04:06:25;;;;;;;8.82;7.93;;;256.70;1996.80;;;;;;5073441;28;20470;-71
2021/04/29 04:08:51;;;;;;;10.70;8.70;;;256.80;1996.80;;;;;;5073465;28;20490;-71
2021/04/29 04:11:17;;;;;;;10.32;7.90;;;256.80;1996.80;;;;;;5073556;28;20035;-70
2021/04/29 04:13:42;;;;;;;10.00;8.75;;;256.80;2022.40;;;;;;5073509;28;20032;-71
2021/04/29 04:16:11;;;;;;;9.75;8.75;;;256.80;2022.40;;;;;;5073488;28;20033;-71
2021/04/29 04:18:38;;;;;;;8.45;7.55;;;256.80;2022.40;;;;;;5073489;28;20048;-71
2021/04/29 04:21:04;;;;;;;10.80;9.45;;;256.80;2022.40;;;;;;5073314;28;20051;-72
2021/04/29 04:23:30;;;;;;;9.48;8.38;;;256.70;2048.00;;;;;;5073850;28;20025;-71
2021/04/29 04:25:55;;;;;;;9.90;8.50;;;231.20;2048.00;;;;;;5073221;28;20066;-69
2021/04/29 04:28:21;;;;;;;9.15;8.25;;;256.80;2048.00;;;;;;5073121;28;20024;-71
2021/04/29 04:30:47;;;;;;;9.05;8.05;;;256.80;2048.00;;;;;;5073196;28;20036;-70
2021/04/29 04:33:12;;;;;;;9.73;7.95;;;256.90;2048.00;;;;;;5073220;28;20052;-71
2021/04/29 04:35:39;;;;;;;8.88;7.97;;;281.60;2048.00;;;;;;5073242;28;20089;-71
2021/04/29 04:38:05;;;;;;;8.93;8.00;;;281.60;2048.00;;;;;;5072988;28;20370;-71
2021/04/29 04:40:31;;;;;;;9.60;8.20;;;281.70;2048.00;;;;;;5072917;28;20027;-71
2021/04/29 04:42:57;;;;;;;8.27;7.47;;;281.70;2048.00;;;;;;5073127;28;20024;-71
2021/04/29 04:45:23;;;;;;;10.10;8.52;;;281.70;2048.00;;;;;;5072686;28;20528;-72
2021/04/29 04:47:49;;;;;;;8.80;7.47;;;281.80;2048.00;;;;;;5072905;28;20043;-70
2021/04/29 04:50:14;;;;;;;8.25;7.43;;;281.70;2048.00;;;;;;5072596;28;20027;-70
2021/04/29 04:52:40;;;;;;;8.27;7.38;;;281.70;2048.00;;;;;;5072879;28;20093;-70
2021/04/29 04:55:07;;;;;;;9.82;7.43;;;281.80;2048.00;;;;;;5072553;28;20497;-70
2021/04/29 04:57:32;;;;;;;9.73;7.50;;;281.90;2048.00;;;;;;5072457;28;20482;-70
2021/04/29 04:59:58;;;;;;;8.18;7.22;;;281.90;2048.00;;;;;;5072659;28;20082;-70
2021/04/29 05:02:24;;;;;;;8.40;7.03;;;281.90;2048.00;;;;;;5072498;28;20031;-70
2021/04/29 05:04:49;;;;;;;7.50;6.68;;;282.00;2048.00;;;;;;5072606;28;20116;-70
2021/04/29 05:07:15;;;;;;;7.18;6.45;;;282.00;2048.00;;;;;;5072256;28;20078;-70
2021/04/29 05:09:42;;;;;;;7.78;6.97;;;282.10;2048.00;;;;;;5070959;28;20032;-71
2021/04/29 05:12:10;;;;;;;9.27;6.40;;;282.10;2022.40;;;;;;5072237;28;20169;-71
2021/04/29 05:14:36;;;;;;;7.28;6.57;;;282.20;2048.00;;;;;;5072282;28;20036;-71
2021/04/29 05:17:02;;;;;;;7.00;6.30;;;282.10;2048.00;;;;;;5071939;28;20048;-71
2021/04/29 05:19:28;;;;;;;6.97;6.28;;;282.10;2048.00;;;;;;5072394;28;20095;-71
2021/04/29 05:21:54;;;;;;;7.70;6.90;;;282.10;2048.00;;;;;;5072153;28;20021;-70
2021/04/29 05:24:19;;;;;;;12.68;9.25;;;282.20;2048.00;;;;;;5072239;28;20024;-70
2021/04/29 05:26:45;;;;;;;7.95;7.00;;;282.10;2048.00;;;;;;5071969;28;20028;-71
2021/04/29 05:29:11;;;;;;;10.95;7.13;;;282.20;2048.00;;;;;;5070645;28;20111;-71
2021/04/29 05:31:37;;;;;;;8.00;7.20;;;282.20;2048.00;;;;;;5071950;28;20033;-70
2021/04/29 05:34:03;;;;;;;7.95;6.93;;;282.20;2048.00;;;;;;5071953;28;20445;-70
2021/04/29 05:36:30;;;;;;;10.95;6.85;;;282.30;2048.00;;;;;;5071954;28;20035;-70
2021/04/29 05:38:56;;;;;;;11.82;7.68;;;282.10;2048.00;;;;;;5071917;28;20467;-70
2021/04/29 05:41:22;;;;;;;10.50;7.63;;;282.30;2022.40;;;;;;5071753;28;20079;-69
2021/04/29 05:43:52;;;;;;;10.45;7.90;;;282.30;2048.00;;;;;;5072035;28;20070;-71
2021/04/29 05:46:18;;;;;;;9.23;7.28;;;282.50;2022.40;;;;;;5071602;28;20067;-71
2021/04/29 05:48:44;;;;;;;12.85;8.63;;;307.20;2048.00;;;;;;5071442;28;20055;-71
2021/04/29 05:51:10;;;;;;;11.68;7.85;;;307.20;2048.00;;;;;;5071577;28;20104;-70
2021/04/29 05:53:35;;;;;;;12.93;8.95;;;307.20;2048.00;;;;;;5071165;28;20052;-69
2021/04/29 05:56:01;;;;;;;11.18;9.02;;;307.20;2048.00;;;;;;5071370;28;20029;-70
2021/04/29 05:58:27;;;;;;;10.10;8.25;;;307.20;2048.00;;;;;;5071399;28;20107;-70
2021/04/29 06:00:52;;;;;;;13.63;9.02;;;307.20;2048.00;;;;;;5071208;28;20466;-69
2021/04/29 06:03:21;;;;;;;13.48;9.30;;;307.40;2048.00;;;;;;5070942;28;20032;-71
2021/04/29 06:05:47;;;;;;;13.60;9.70;;;307.40;2022.40;;;;;;5071281;28;20466;-70
2021/04/29 06:08:12;;;;;;;12.38;9.60;;;307.40;2048.00;;;;;;5071134;28;20036;-70
2021/04/29 06:10:38;;;;;;;13.55;10.35;;;307.40;2048.00;;;;;;5071241;28;20039;-69
2021/04/29 06:13:04;;;;;;;15.30;9.35;;;307.50;2048.00;;;;;;5070996;28;20055;-70
2021/04/29 06:15:30;;;;;;;11.63;8.65;;;307.50;2048.00;;;;;;5069960;28;20096;-70
2021/04/29 06:17:55;;;;;;;10.80;8.75;;;307.50;2048.00;;;;;;5070808;28;20521;-70
2021/04/29 06:20:21;;;;;;;13.70;9.55;;;307.50;2048.00;;;;;;5070988;28;20074;-70
2021/04/29 06:22:47;;;;;;;15.00;9.25;;;307.50;2048.00;;;;;;5071268;28;20020;-71
2021/04/29 06:25:13;;;;;;;11.85;9.77;;;307.50;2073.60;;;;;;5071033;28;20425;-70
2021/04/29 06:27:39;;;;;;;15.63;8.82;;;307.60;2048.00;;;;;;5071111;28;20526;-70
2021/04/29 06:30:07;;;;;;;14.35;9.35;;;307.70;2048.00;;;;;;5070859;28;20108;-68
2021/04/29 06:32:32;;;;;;;11.63;8.38;;;307.70;2022.40;;;;;;5070934;28;20094;-69
2021/04/29 06:34:58;;;;;;;10.95;8.32;;;307.70;2022.40;;;;;;5070942;28;20359;-71
2021/04/29 06:37:24;;;;;;;13.70;8.07;;;307.80;2022.40;;;;;;5070660;28;20086;-70
2021/04/29 06:39:50;;;;;;;12.18;8.10;;;307.90;2022.40;;;;;;5069878;28;20032;-71
2021/04/29 06:42:16;;;;;;;12.23;8.13;;;307.90;2022.40;;;;;;5071098;28;20047;-70
2021/04/29 06:44:42;;;;;;;14.75;8.85;;;307.90;2022.40;;;;;;5070789;28;20475;-70
2021/04/29 06:47:08;;;;;;;12.38;8.40;;;308.00;2022.40;;;;;;5069175;28;20044;-70
2021/04/29 06:49:34;;;;;;;13.85;9.77;;;308.10;1996.80;;;;;;5070617;28;20036;-69
2021/04/29 06:52:00;;;;;;;11.52;8.85;;;308.10;1996.80;;;;;;5070664;28;20386;-70
2021/04/29 06:54:26;;;;;;;10.93;8.90;;;332.80;2022.40;;;;;;5070700;28;20025;-70
2021/04/29 06:56:53;;;;;;;15.48;9.07;;;332.80;2022.40;;;;;;5070625;28;20036;-70
2021/04/29 06:59:19;;;;;;;16.08;9.35;;;332.90;1996.80;;;;;;5070593;28;20391;-70
2021/04/29 07:01:45;;;;;;;12.52;8.80;;;333.00;2022.40;;;;;;5070369;28;20032;-70
2021/04/29 07:04:10;;;;;;;10.45;8.52;;;333.10;2022.40;;;;;;5070535;28;20471;-70
2021/04/29 07:06:36;;;;;;;10.23;8.48;;;333.10;2048.00;;;;;;5070656;28;20036;-70
2021/04/29 07:09:03;;;;;;;11.27;8.15;;;333.30;2022.40;;;;;;5070130;28;20031;-70
2021/04/29 07:11:30;;;;;;;13.27;9.13;;;333.30;1996.80;;;;;;5070398;28;20032;-70
2021/04/29 07:13:56;;;;;;;14.13;11.38;;;333.30;1996.80;;;;;;5070146;28;20028;-70
2021/04/29 07:16:23;;;;;;;11.35;8.95;;;333.40;1971.20;;;;;;5073931;28;20028;-70
2021/04/29 07:18:48;;;;;;;13.05;8.88;;;333.40;1996.80;;;;;;5074848;28;20063;-69
2021/04/29 07:21:14;;;;;;;13.02;9.27;;;333.50;1996.80;;;;;;5074359;28;20020;-70
2021/04/29 07:23:40;;;;;;;13.65;8.20;;;333.50;1971.20;;;;;;5074585;28;20025;-70
2021/04/29 07:26:06;;;;;;;9.13;7.78;;;333.70;1996.80;;;;;;5074297;28;20025;-70
2021/04/29 07:28:32;;;;;;;9.70;7.50;;;333.70;1971.20;;;;;;5074220;28;20033;-70
2021/04/29 07:30:58;;;;;;;9.38;7.30;;;358.40;1971.20;;;;;;5074411;28;20090;-69
2021/04/29 07:33:23;;;;;;;10.27;7.88;;;358.50;1971.20;;;;;;5074224;28;20055;-70
2021/04/29 07:35:49;;;;;;;10.35;6.95;;;358.50;1945.60;;;;;;5074230;28;20024;-69
2021/04/29 07:38:15;;;;;;;14.25;10.50;;;358.50;1971.20;;;;;;5074063;28;20037;-70
2021/04/29 07:40:41;;;;;;;12.18;9.40;;;358.50;1945.60;;;;;;5074257;28;20031;-69
2021/04/29 07:43:07;;;;;;;14.25;8.25;;;358.60;1945.60;;;;;;5074244;28;20141;-70
2021/04/29 07:45:33;;;;;;;10.38;8.68;;;358.60;1945.60;;;;;;5073764;28;20513;-69
2021/04/29 07:47:59;;;;;;;10.73;8.15;;;358.70;1945.60;;;;;;5074136;28;20070;-70
2021/04/29 07:50:27;;;;;;;10.25;8.07;;;358.70;1945.60;;;;;;5073812;28;20382;-69
2021/04/29 07:52:53;;;;;;;11.52;8.43;;;358.90;1971.20;;;;;;5073640;28;20039;-70
2021/04/29 07:55:19;;;;;;;11.05;8.48;;;359.00;1945.60;;;;;;5070316;28;20394;-70
2021/04/29 07:57:44;;;;;;;11.90;9.32;;;359.00;1920.00;;;;;;5066649;28;20028;-70
2021/04/29 08:00:12;;;;;;;13.02;10.18;;;359.10;1920.00;;;;;;5066715;28;20017;-69
2021/04/29 08:02:38;;;;;;;14.73;9.43;;;359.30;1920.00;;;;;;5062931;28;20021;-68
2021/04/29 08:05:05;;;;;;;10.70;8.50;;;384.00;1894.40;;;;;;5062155;28;20183;-68
2021/04/29 08:07:31;;;;;;;12.05;8.18;;;384.00;1894.40;;;;;;5063630;28;20952;-69
2021/04/29 08:09:57;;;;;;;11.50;7.72;;;384.10;1920.00;;;;;;5067522;28;20024;-69
2021/04/29 08:12:22;;;;;;;10.70;7.75;;;384.30;1920.00;;;;;;5061775;28;20040;-70
2021/04/29 08:14:48;;;;;;;13.35;9.98;;;384.40;1894.40;;;;;;5063796;28;20477;-71
2021/04/29 08:17:14;;;;;;;11.68;8.95;;;384.50;1868.80;;;;;;5061306;28;20411;-71
2021/04/29 08:19:39;;;;;;;14.70;8.00;;;384.60;1868.80;;;;;;5062475;28;20035;-70
2021/04/29 08:22:05;;;;;;;9.02;8.07;;;384.60;1843.20;;;;;;5063435;28;20052;-70
2021/04/29 08:24:31;;;;;;;11.07;8.27;;;384.70;1868.80;;;;;;5062058;28;20029;-72
2021/04/29 08:26:57;;;;;;;10.10;7.35;;;384.90;1843.20;;;;;;5062104;28;20027;-69
2021/04/29 08:29:23;;;;;;;10.52;8.00;;;384.90;1843.20;;;;;;5063029;28;20021;-69
2021/04/29 08:31:50;;;;;;;11.30;7.95;;;409.60;1868.80;;;;;;5061347;28;20029;-69
2021/04/29 08:34:16;;;;;;;9.40;7.78;;;409.70;1843.20;;;;;;5062435;28;20069;-69
2021/04/29 08:36:41;;;;;;;10.10;7.38;;;409.80;1843.20;;;;;;5062539;28;20033;-70
2021/04/29 08:39:08;;;;;;;10.40;7.70;;;409.90;1817.60;;;;;;5061428;28;20383;-70
2021/04/29 08:41:35;;;;;;;8.20;6.97;;;409.90;1843.20;;;;;;5062539;28;20025;-69
2021/04/29 08:44:01;;;;;;;8.32;6.80;;;410.00;1843.20;;;;;;5062510;28;20053;-70
2021/04/29 08:46:27;;;;;;;11.52;7.90;;;410.10;1843.20;;;;;;5060052;28;20041;-71
2021/04/29 08:48:55;;;;;;;10.48;7.35;;;410.20;1792.00;;;;;;5062704;28;20024;-68
2021/04/29 08:51:21;;;;;;;10.45;7.88;;;410.20;1792.00;;;;;;5062105;28;20040;-70
2021/04/29 08:53:48;;;;;;;14.63;9.45;;;410.30;1792.00;;;;;;5060692;28;20057;-69
2021/04/29 08:56:20;;;;;;;11.75;7.80;;;410.40;1766.40;;;;;;5062122;28;20542;-70
2021/04/29 08:58:45;;;;;;;11.10;7.05;;;410.50;1766.40;;;;;;5077927;28;20022;-70
2021/04/29 09:01:11;;;;;;;12.57;9.38;;;435.20;1817.60;;;;;;5060665;28;20024;-69
2021/04/29 09:03:38;;;;;;;11.20;7.80;;;435.30;1766.40;;;;;;5061910;28;20528;-68
2021/04/29 09:06:04;;;;;;;12.80;8.00;;;435.40;1766.40;;;;;;5060958;28;20029;-70
2021/04/29 09:08:32;;;;;;;12.27;8.05;;;435.50;1792.00;;;;;;5060778;28;20043;-70
2021/04/29 09:11:18;;;;;;;9.98;7.00;;;435.60;1740.80;;;;;;5061595;28;20074;-70
2021/04/29 09:14:03;;;;;;;13.45;7.25;;;435.70;1792.00;;;;;;5062223;28;20025;-70
2021/04/29 09:16:41;;;;;;;13.32;9.27;;;435.90;1766.40;;;;;;5077720;28;20034;-69
2021/04/29 09:19:18;;;;;;;11.60;7.63;;;435.90;1715.20;;;;;;5062155;28;20039;-70
2021/04/29 09:21:44;;;;;;;12.55;8.35;;;435.90;1715.20;;;;;;5062505;28;20021;-68
2021/04/29 09:24:10;;;;;;;9.43;7.60;;;436.00;1689.60;;;;;;5062316;28;20027;-69
2021/04/29 09:26:36;;;;;;;10.15;6.75;;;436.10;1715.20;;;;;;5060409;28;20417;-69
2021/04/29 09:29:10;;;;;;;10.93;6.68;;;436.10;1664.00;;;;;;5061194;28;20025;-70
2021/04/29 09:31:47;;;;;;;10.82;8.50;;;460.90;1715.20;;;;;;5062035;28;20450;-70
2021/04/29 09:34:17;;;;;;;10.30;6.38;;;461.20;1715.20;;;;;;5062164;28;20013;-70
2021/04/29 09:36:43;;;;;;;7.80;6.05;;;461.00;1715.20;;;;;;5066815;28;20131;-71
2021/04/29 09:39:16;;;;;;;6.85;6.03;;;461.20;1740.80;;;;;;5071717;28;20382;-71
2021/04/29 09:41:46;;;;;;;9.35;6.53;;;461.20;1689.60;;;;;;5071918;28;20076;-70
2021/04/29 09:44:14;;;;;;;13.03;6.70;;;461.30;1740.80;;;;;;5071774;28;20028;-70
2021/04/29 09:46:45;;;;;;;10.52;6.43;;;461.40;1689.60;;;;;;5071626;28;20028;-70
2021/04/29 09:49:26;;;;;;;14.30;6.65;;;461.50;1715.20;;;;;;5071785;28;20082;-70
2021/04/29 09:51:54;;;;;;;9.00;5.75;;;461.60;1689.60;;;;;;5071437;28;20043;-70
2021/04/29 09:54:39;;;;;;;11.18;6.85;;;461.60;1689.60;;;;;;5071666;28;20413;-70
2021/04/29 09:57:31;;;;;;;9.93;7.60;;;461.70;1664.00;;;;;;5071287;28;20086;-69
2021/04/29 09:59:58;;;;;;;10.05;6.80;;;486.40;1612.80;;;;;;5069377;28;20047;-69
2021/04/29 10:02:26;;;;;;;8.57;6.25;;;486.50;1638.40;;;;;;5071280;28;20020;-69
2021/04/29 10:04:53;;;;;;;9.68;6.80;;;486.50;1638.40;;;;;;5071170;28;20093;-70
2021/04/29 10:07:20;;;;;;;13.50;6.72;;;486.60;1612.80;;;;;;5071376;28;20017;-69
2021/04/29 10:09:47;;;;;;;8.57;5.93;;;486.70;1638.40;;;;;;5071044;28;20025;-69
2021/04/29 10:12:18;;;;;;;11.63;5.93;;;486.80;1612.80;;;;;;5071157;28;20036;-69
2021/04/29 10:14:46;;;;;;;9.75;6.28;;;486.90;1612.80;;;;;;5070924;28;20013;-70
2021/04/29 10:17:14;;;;;;;7.28;4.90;;;486.90;1587.20;;;;;;5070585;28;20072;-70
2021/04/29 10:19:51;;;;;;;7.72;5.65;;;487.00;1612.80;;;;;;5071272;28;20025;-70
2021/04/29 10:22:18;;;;;;;12.57;7.50;;;487.10;1638.40;;;;;;5071098;28;20039;-69
2021/04/29 10:24:46;;;;;;;9.30;4.97;;;487.20;1587.20;;;;;;5071143;28;20540;-71
2021/04/29 10:27:17;;;;;;;7.75;5.15;;;487.30;1587.20;;;;;;5070803;28;20028;-70
2021/04/29 10:29:46;;;;;;;7.40;4.97;;;512.00;1587.20;;;;;;5070811;28;20039;-69
2021/04/29 10:32:13;;;;;;;7.95;5.07;;;512.10;1587.20;;;;;;5070727;28;20072;-71
2021/04/29 10:34:45;;;;;;;7.38;5.00;;;512.20;1561.60;;;;;;5070961;28;20028;-70
2021/04/29 10:37:20;;;;;;;9.90;5.22;;;512.20;1536.00;;;;;;5070954;28;20109;-71
2021/04/29 10:39:59;;;;;;;7.78;5.28;;;512.30;1587.20;;;;;;5070710;28;20024;-71
2021/04/29 10:42:28;;;;;;;6.85;4.78;;;512.30;1536.00;;;;;;5070609;28;20028;-70
2021/04/29 10:44:58;;;;;;;12.93;7.22;;;512.50;1561.60;;;;;;5070637;28;20439;-72
2021/04/29 10:47:29;;;;;;;14.07;5.47;;;512.60;1510.40;;;;;;5070555;28;20035;-70
2021/04/29 10:50:13;;;;;;;8.98;4.28;;;512.70;1510.40;;;;;;5070500;28;20029;-71
2021/04/29 10:52:56;;;;;;;11.27;4.88;;;512.70;1510.40;;;;;;5070641;28;20036;-70
2021/04/29 10:55:26;;;;;;;8.75;4.47;;;512.70;1536.00;;;;;;5070414;28;20052;-70
2021/04/29 10:57:53;;;;;;;7.20;4.70;;;512.80;1536.00;;;;;;5070391;28;20150;-70
2021/04/29 11:00:20;;;;;;;6.03;4.72;;;512.80;1484.80;;;;;;5070586;28;20501;-71
2021/04/29 11:02:58;;;;;;;8.55;4.72;;;537.60;1510.40;;;;;;5070334;28;20020;-71
2021/04/29 11:05:25;;;;;;;11.20;4.50;;;537.70;1459.20;;;;;;5070296;28;20017;-69
2021/04/29 11:07:53;;;;;;;11.18;4.47;;;537.80;1510.40;;;;;;5070248;28;20467;-70
2021/04/29 11:10:20;;;;;;;7.60;3.97;;;537.80;1510.40;;;;;;5070404;28;20036;-70
2021/04/29 11:12:54;;;;;;;11.68;4.65;;;537.90;1459.20;;;;;;5070112;28;20475;-71
2021/04/29 11:15:28;;;;;;;9.77;4.93;;;538.00;1510.40;;;;;;5070428;28;20079;-70
2021/04/29 11:18:16;;;;;;;7.60;5.28;;;538.00;1433.60;;;;;;5070081;28;20398;-70
2021/04/29 11:20:47;;;;;;;8.68;4.88;;;538.10;1459.20;;;;;;5070274;28;20028;-70
2021/04/29 11:23:15;;;;;;;7.35;4.40;;;538.30;1459.20;;;;;;5070165;28;20100;-70
2021/04/29 11:25:41;;;;;;;11.82;4.50;;;538.30;1433.60;;;;;;5070733;28;20470;-70
2021/04/29 11:28:08;;;;;;;11.77;4.47;;;538.40;1510.40;;;;;;5070350;28;20029;-70
2021/04/29 11:30:34;;;;;;;8.05;3.85;;;538.40;1459.20;;;;;;5070090;28;20048;-70
2021/04/29 11:33:04;;;;;;;11.38;4.82;;;538.50;1433.60;;;;;;5070436;28;20036;-70
2021/04/29 11:35:34;;;;;;;10.95;5.13;;;538.50;1408.00;;;;;;5070397;28;20027;-70
2021/04/29 11:38:06;;;;;;;63.47;7.10;;;563.30;1484.80;;;;;;5070367;28;20091;-71
2021/04/29 11:40:34;;;;;;;105.03;13.00;;;563.40;1433.60;;;;;;5070075;28;20150;-72
2021/04/29 11:43:00;;;;;;;15.80;5.40;;;563.40;1408.00;;;;;;5070218;28;20052;-72
2021/04/29 11:45:28;;;;;;;7.93;4.32;;;563.50;1382.40;;;;;;5069766;28;20475;-73
2021/04/29 11:47:55;;;;;;;9.93;4.32;;;563.50;1408.00;;;;;;5069926;28;20386;-73
2021/04/29 11:50:23;;;;;;;7.80;4.20;;;563.60;1408.00;;;;;;5068780;28;20037;-73
2021/04/29 11:52:50;;;;;;;8.25;3.97;;;563.60;1382.40;;;;;;5070049;28;20570;-73
2021/04/29 11:55:24;;;;;;;6.45;3.92;;;563.60;1408.00;;;;;;5069929;28;20047;-72
2021/04/29 11:57:50;;;;;;;5.82;3.65;;;563.70;1408.00;;;;;;5070046;28;20024;-72
2021/04/29 12:00:17;;;;;;;9.85;3.53;;;563.70;1382.40;;;;;;5070290;28;20023;-73
2021/04/29 12:02:43;;;;;;;8.60;4.30;;;563.80;1382.40;;;;;;5073533;28;20467;-73
2021/04/29 12:05:09;;;;;;;7.05;4.22;;;563.90;1382.40;;;;;;5073551;28;20021;-72
2021/04/29 12:07:41;;;;;;;9.25;4.60;;;564.00;1356.80;;;;;;5073330;28;20039;-72
2021/04/29 12:10:08;;;;;;;9.38;4.00;;;564.00;1331.20;;;;;;5072181;28;20063;-72
2021/04/29 12:12:33;;;;;;;7.63;3.45;;;564.00;1331.20;;;;;;5073210;28;20487;-73
2021/04/29 12:14:59;;;;;;;8.88;4.20;;;564.10;1356.80;;;;;;5073302;28;20108;-73